createdAt,value
2023-05-19T00:01:45.444Z,7.65
2023-05-19T00:04:15.249Z,7.73
2023-05-19T00:06:42.627Z,7.70
2023-05-19T00:09:14.254Z,7.63
2023-05-19T00:11:41.206Z,7.68
2023-05-19T00:14:10.002Z,7.74
2023-05-19T00:16:38.117Z,7.72
2023-05-19T00:19:10.066Z,7.76
2023-05-19T00:21:40.479Z,7.68
2023-05-19T00:24:20.616Z,7.68
2023-05-19T00:26:47.413Z,7.77
2023-05-19T00:29:19.427Z,7.68
2023-05-19T00:31:57.896Z,7.65
2023-05-19T00:34:24.589Z,7.67
2023-05-19T00:36:51.745Z,7.56
2023-05-19T00:39:24.260Z,7.59
2023-05-19T00:41:53.087Z,7.54
2023-05-19T00:44:19.815Z,7.54
2023-05-19T00:46:46.528Z,7.62
2023-05-19T00:49:16.135Z,7.54
2023-05-19T00:51:42.975Z,7.37
2023-05-19T00:54:09.967Z,7.35
2023-05-19T00:56:36.578Z,7.13
2023-05-19T00:59:03.494Z,7.04
2023-05-19T01:01:32.272Z,6.97
2023-05-19T01:04:00.522Z,6.96
2023-05-19T01:06:38.591Z,6.94
2023-05-19T01:09:05.351Z,7.09
2023-05-19T01:11:32.017Z,6.89
2023-05-19T01:13:58.566Z,6.92
2023-05-19T01:16:35.320Z,6.71
2023-05-19T01:19:34.051Z,6.69
2023-05-19T01:22:13.049Z,6.74
2023-05-19T01:25:17.776Z,6.84
2023-05-19T01:28:10.078Z,6.81
2023-05-19T01:30:40.399Z,6.79
2023-05-19T01:33:12.381Z,6.83
2023-05-19T01:35:40.583Z,6.82
2023-05-19T01:38:13.721Z,6.66
2023-05-19T01:40:43.643Z,6.70
2023-05-19T01:43:19.186Z,6.58
2023-05-19T01:45:47.850Z,6.67
2023-05-19T01:48:15.349Z,6.63
2023-05-19T01:50:51.562Z,6.58
2023-05-19T01:53:18.309Z,6.52
2023-05-19T01:55:54.919Z,6.50
2023-05-19T01:58:44.790Z,6.13
2023-05-19T02:01:42.091Z,6.25
2023-05-19T02:05:22.779Z,6.26
2023-05-19T02:08:10.323Z,6.19
2023-05-19T02:10:41.421Z,6.23
2023-05-19T02:13:13.593Z,6.18
2023-05-19T02:15:46.503Z,6.18
2023-05-19T02:18:22.721Z,6.20
2023-05-19T02:20:49.248Z,6.10
2023-05-19T02:23:15.829Z,6.15
2023-05-19T02:25:42.879Z,6.05
2023-05-19T02:28:09.420Z,6.07
2023-05-19T02:30:36.070Z,6.16
2023-05-19T02:33:06.592Z,6.13
2023-05-19T02:35:39.175Z,6.12
2023-05-19T02:38:18.022Z,6.00
2023-05-19T02:40:44.569Z,5.96
2023-05-19T02:43:11.144Z,5.96
2023-05-19T02:45:37.665Z,5.90
2023-05-19T02:48:04.704Z,5.94
2023-05-19T02:50:31.504Z,5.96
2023-05-19T02:53:03.949Z,6.00
2023-05-19T02:55:30.468Z,6.03
2023-05-19T02:57:56.964Z,6.04
2023-05-19T03:00:23.519Z,5.76
2023-05-19T03:02:50.132Z,5.34
2023-05-19T03:05:16.823Z,5.36
2023-05-19T03:07:43.359Z,5.32
2023-05-19T03:10:10.415Z,5.38
2023-05-19T03:12:36.911Z,5.19
2023-05-19T03:15:03.627Z,5.22
2023-05-19T03:17:34.032Z,5.27
2023-05-19T03:20:01.456Z,5.19
2023-05-19T03:22:28.079Z,5.13
2023-05-19T03:24:54.731Z,5.15
2023-05-19T03:27:30.224Z,5.24
2023-05-19T03:30:06.636Z,5.40
2023-05-19T03:32:38.182Z,4.93
2023-05-19T03:35:05.635Z,4.98
2023-05-19T03:37:35.004Z,5.05
2023-05-19T03:40:01.594Z,5.11
2023-05-19T03:42:28.124Z,5.01
2023-05-19T03:44:57.630Z,4.91
2023-05-19T03:47:25.248Z,4.98
2023-05-19T03:49:51.770Z,4.88
2023-05-19T03:52:27.216Z,4.85
2023-05-19T03:54:57.738Z,4.89
2023-05-19T03:57:24.402Z,4.95
2023-05-19T03:59:50.943Z,4.90
2023-05-19T04:02:22.803Z,4.89
2023-05-19T04:04:50.486Z,4.97
2023-05-19T04:07:17.287Z,5.04
2023-05-19T04:09:43.860Z,4.99
2023-05-19T04:12:10.582Z,4.99
2023-05-19T04:14:42.655Z,4.94
2023-05-19T04:17:09.329Z,5.02
2023-05-19T04:19:37.575Z,5.16
2023-05-19T04:22:04.276Z,5.23
2023-05-19T04:24:31.042Z,5.32
2023-05-19T04:27:02.368Z,5.43
2023-05-19T04:29:29.475Z,5.49
2023-05-19T04:32:03.555Z,5.46
2023-05-19T04:34:30.654Z,5.50
2023-05-19T04:36:58.534Z,5.59
2023-05-19T04:39:25.623Z,5.65
2023-05-19T04:41:54.023Z,5.68
2023-05-19T04:44:26.353Z,5.70
2023-05-19T04:46:54.406Z,5.73
2023-05-19T04:49:24.222Z,5.74
2023-05-19T04:51:56.657Z,5.79
2023-05-19T04:54:23.182Z,5.84
2023-05-19T04:56:58.501Z,5.75
2023-05-19T04:59:25.012Z,5.74
2023-05-19T05:01:55.494Z,5.73
2023-05-19T05:04:23.756Z,5.67
2023-05-19T05:06:50.584Z,5.63
2023-05-19T05:09:18.926Z,5.57
2023-05-19T05:11:46.050Z,5.61
2023-05-19T05:14:13.027Z,5.65
2023-05-19T05:16:39.941Z,5.64
2023-05-19T05:19:06.924Z,5.76
2023-05-19T05:21:36.075Z,5.84
2023-05-19T05:24:03.114Z,5.89
2023-05-19T05:26:33.818Z,5.95
2023-05-19T05:29:00.466Z,6.04
2023-05-19T05:31:27.035Z,6.19
2023-05-19T05:34:02.208Z,6.26
2023-05-19T05:36:28.761Z,6.44
2023-05-19T05:38:55.350Z,6.62
2023-05-19T05:41:22.082Z,6.75
2023-05-19T05:44:02.436Z,6.85
2023-05-19T05:46:29.402Z,6.96
2023-05-19T05:48:56.615Z,7.20
2023-05-19T05:51:23.783Z,7.34
2023-05-19T05:53:54.024Z,7.39
2023-05-19T05:56:22.063Z,7.56
2023-05-19T05:58:49.474Z,7.77
2023-05-19T06:01:17.726Z,7.92
2023-05-19T06:03:44.978Z,8.04
2023-05-19T06:06:17.480Z,8.21
2023-05-19T06:08:44.015Z,8.41
2023-05-19T06:11:13.338Z,8.49
2023-05-19T06:13:45.390Z,8.74
2023-05-19T06:16:11.947Z,8.93
2023-05-19T06:18:44.146Z,9.10
2023-05-19T06:21:13.194Z,9.32
2023-05-19T06:23:43.543Z,9.48
2023-05-19T06:26:10.112Z,9.72
2023-05-19T06:28:36.668Z,9.75
2023-05-19T06:31:03.347Z,9.93
2023-05-19T06:33:29.910Z,10.11
2023-05-19T06:35:56.468Z,10.28
2023-05-19T06:38:23.104Z,10.49
2023-05-19T06:40:49.600Z,10.59
2023-05-19T06:43:16.101Z,10.71
2023-05-19T06:45:42.559Z,10.90
2023-05-19T06:48:09.175Z,11.04
2023-05-19T06:50:38.475Z,11.13
2023-05-19T06:53:06.062Z,11.37
2023-05-19T06:55:34.425Z,11.55
2023-05-19T06:58:03.718Z,11.72
2023-05-19T07:00:30.219Z,11.90
2023-05-19T07:02:56.820Z,12.01
2023-05-19T07:05:23.370Z,12.14
2023-05-19T07:07:49.962Z,12.28
2023-05-19T07:10:19.364Z,12.32
2023-05-19T07:12:46.169Z,12.44
2023-05-19T07:15:12.841Z,12.60
2023-05-19T07:17:39.438Z,12.73
2023-05-19T07:20:07.097Z,12.71
2023-05-19T07:22:36.852Z,12.72
2023-05-19T07:25:03.434Z,12.81
2023-05-19T07:27:30.000Z,13.18
2023-05-19T07:30:07.362Z,13.18
2023-05-19T07:32:33.915Z,13.20
2023-05-19T07:35:00.570Z,13.19
2023-05-19T07:37:27.333Z,13.42
2023-05-19T07:39:53.908Z,13.43
2023-05-19T07:42:20.465Z,13.58
2023-05-19T07:44:47.009Z,13.66
2023-05-19T07:47:25.216Z,13.75
2023-05-19T07:49:52.063Z,13.95
2023-05-19T07:52:18.774Z,13.99
2023-05-19T07:54:45.986Z,14.10
2023-05-19T07:57:12.624Z,14.18
2023-05-19T07:59:39.237Z,14.55
2023-05-19T08:02:06.447Z,14.59
2023-05-19T08:04:33.314Z,14.54
2023-05-19T08:06:59.896Z,14.66
2023-05-19T08:09:26.593Z,14.64
2023-05-19T08:11:53.422Z,14.63
2023-05-19T08:14:22.671Z,14.75
2023-05-19T08:16:49.955Z,14.71
2023-05-19T08:19:16.564Z,14.91
2023-05-19T08:21:45.071Z,14.92
2023-05-19T08:24:11.659Z,15.01
2023-05-19T08:26:38.287Z,15.05
2023-05-19T08:29:05.026Z,15.20
2023-05-19T08:31:31.784Z,15.48
2023-05-19T08:33:58.367Z,15.70
2023-05-19T08:36:24.887Z,15.70
2023-05-19T08:38:56.289Z,15.93
2023-05-19T08:41:23.333Z,15.90
2023-05-19T08:43:50.161Z,15.94
2023-05-19T08:46:17.026Z,15.82
2023-05-19T08:48:47.533Z,15.92
2023-05-19T08:51:24.451Z,15.99
2023-05-19T08:53:57.666Z,16.05
2023-05-19T08:56:32.550Z,16.21
2023-05-19T08:59:00.431Z,16.29
2023-05-19T09:01:28.887Z,16.17
2023-05-19T09:03:55.958Z,16.36
2023-05-19T09:06:29.060Z,16.32
2023-05-19T09:08:56.899Z,16.33
2023-05-19T09:11:23.523Z,16.24
2023-05-19T09:13:50.442Z,16.49
2023-05-19T09:16:17.772Z,16.47
2023-05-19T09:18:58.231Z,16.52
2023-05-19T09:21:36.388Z,16.57
2023-05-19T09:24:09.519Z,16.52
2023-05-19T09:26:50.610Z,16.68
2023-05-19T09:29:18.308Z,16.88
2023-05-19T09:32:06.593Z,16.85
2023-05-19T09:34:33.233Z,16.97
2023-05-19T09:36:59.903Z,17.42
2023-05-19T09:39:26.691Z,17.20
2023-05-19T09:41:56.168Z,17.18
2023-05-19T09:44:31.235Z,17.26
2023-05-19T09:46:58.696Z,17.40
2023-05-19T09:49:30.395Z,17.43
2023-05-19T09:52:07.714Z,17.49
2023-05-19T09:54:34.797Z,17.36
2023-05-19T09:57:04.837Z,18.07
2023-05-19T09:59:33.656Z,17.67
2023-05-19T10:02:02.733Z,17.72
2023-05-19T10:04:30.883Z,18.19
2023-05-19T10:06:59.670Z,17.63
2023-05-19T10:09:29.511Z,17.59
2023-05-19T10:11:58.428Z,18.66
2023-05-19T10:14:28.653Z,18.14
2023-05-19T10:16:59.670Z,17.87
2023-05-19T10:19:29.640Z,17.51
2023-05-19T10:21:56.880Z,17.48
2023-05-19T10:24:24.253Z,17.54
2023-05-19T10:27:07.752Z,17.59
2023-05-19T10:29:40.500Z,17.70
2023-05-19T10:32:14.484Z,17.92
2023-05-19T10:35:11.622Z,17.95
2023-05-19T10:38:10.484Z,18.05
2023-05-19T10:40:43.713Z,18.05
2023-05-19T10:44:04.232Z,18.22
2023-05-19T10:46:31.173Z,18.42
2023-05-19T10:48:57.802Z,18.74
2023-05-19T10:51:34.844Z,18.41
2023-05-19T10:54:15.920Z,18.23
2023-05-19T10:56:47.396Z,18.34
2023-05-19T10:59:39.943Z,18.53
2023-05-19T11:02:08.730Z,18.57
2023-05-19T11:04:49.547Z,18.47
2023-05-19T11:07:20.389Z,18.66
2023-05-19T11:09:53.982Z,18.16
2023-05-19T11:12:24.677Z,18.24
2023-05-19T11:14:59.220Z,18.85
2023-05-19T11:17:27.333Z,18.80
2023-05-19T11:19:57.105Z,18.67
2023-05-19T11:22:28.088Z,18.80
2023-05-19T11:24:58.056Z,18.92
2023-05-19T11:27:32.844Z,18.69
2023-05-19T11:30:07.555Z,19.04
2023-05-19T11:32:39.190Z,19.18
2023-05-19T11:35:08.025Z,19.06
2023-05-19T11:37:37.966Z,18.52
2023-05-19T11:40:09.582Z,18.72
2023-05-19T11:42:37.235Z,19.17
2023-05-19T11:45:05.251Z,19.39
2023-05-19T11:47:47.062Z,19.78
2023-05-19T11:50:22.783Z,19.11
2023-05-19T11:52:54.205Z,19.19
2023-05-19T11:55:22.416Z,18.96
2023-05-19T11:58:05.801Z,19.46
2023-05-19T12:00:40.435Z,19.53
2023-05-19T12:03:08.739Z,19.28
2023-05-19T12:05:45.366Z,19.08
2023-05-19T12:08:12.890Z,19.11
2023-05-19T12:10:40.404Z,19.58
2023-05-19T12:13:11.022Z,19.67
2023-05-19T12:15:37.882Z,19.30
2023-05-19T12:18:04.616Z,19.35
2023-05-19T12:20:32.575Z,19.29
2023-05-19T12:23:00.737Z,19.30
2023-05-19T12:25:29.738Z,19.88
2023-05-19T12:28:05.519Z,19.82
2023-05-19T12:30:33.322Z,20.47
2023-05-19T12:33:02.490Z,20.09
2023-05-19T12:35:35.856Z,19.82
2023-05-19T12:38:12.196Z,19.91
2023-05-19T12:40:42.417Z,19.72
2023-05-19T12:43:19.135Z,19.97
2023-05-19T12:45:45.863Z,19.93
2023-05-19T12:48:12.744Z,20.26
2023-05-19T12:50:39.528Z,20.24
2023-05-19T12:53:10.946Z,20.19
2023-05-19T12:55:45.533Z,20.06
2023-05-19T12:58:12.607Z,20.24
2023-05-19T13:00:45.286Z,20.37
2023-05-19T13:03:20.458Z,20.63
2023-05-19T13:05:50.669Z,20.42
2023-05-19T13:08:20.575Z,20.33
2023-05-19T13:10:49.077Z,20.27
2023-05-19T13:13:16.629Z,20.29
2023-05-19T13:15:46.235Z,20.21
2023-05-19T13:18:13.981Z,20.48
2023-05-19T13:20:43.178Z,20.57
2023-05-19T13:23:14.284Z,20.56
2023-05-19T13:25:41.973Z,20.66
2023-05-19T13:28:09.527Z,20.82
2023-05-19T13:30:39.016Z,20.88
2023-05-19T13:33:06.212Z,20.96
2023-05-19T13:35:36.955Z,21.17
2023-05-19T13:38:10.079Z,21.59
2023-05-19T13:40:37.545Z,22.14
2023-05-19T13:43:05.084Z,21.72
2023-05-19T13:45:31.968Z,21.45
2023-05-19T13:47:58.698Z,21.29
2023-05-19T13:50:25.403Z,21.42
2023-05-19T13:52:51.984Z,21.30
2023-05-19T13:55:18.904Z,21.28
2023-05-19T13:57:45.562Z,21.38
2023-05-19T14:00:12.683Z,21.25
2023-05-19T14:02:39.663Z,21.07
2023-05-19T14:05:07.797Z,21.16
2023-05-19T14:07:36.603Z,21.18
2023-05-19T14:10:06.646Z,21.21
2023-05-19T14:12:44.902Z,21.18
2023-05-19T14:15:19.666Z,20.93
2023-05-19T14:17:46.348Z,21.03
2023-05-19T14:20:13.212Z,21.10
2023-05-19T14:22:39.756Z,21.58
2023-05-19T14:25:07.224Z,21.67
2023-05-19T14:27:33.780Z,21.90
2023-05-19T14:30:00.405Z,21.74
2023-05-19T14:32:30.115Z,21.75
2023-05-19T14:34:56.983Z,21.66
2023-05-19T14:37:24.164Z,21.63
2023-05-19T14:39:50.738Z,21.79
2023-05-19T14:42:17.217Z,21.59
2023-05-19T14:44:43.934Z,21.50
2023-05-19T14:47:11.240Z,21.79
2023-05-19T14:49:38.184Z,21.77
2023-05-19T14:52:04.934Z,21.72
2023-05-19T14:54:31.511Z,21.62
2023-05-19T14:56:58.155Z,21.67
2023-05-19T14:59:24.976Z,21.76
2023-05-19T15:01:51.570Z,21.65
2023-05-19T15:04:18.102Z,21.56
2023-05-19T15:06:48.110Z,21.62
2023-05-19T15:09:16.876Z,21.72
2023-05-19T15:11:43.440Z,21.66
2023-05-19T15:14:10.010Z,21.39
2023-05-19T15:16:36.630Z,21.48
2023-05-19T15:19:03.214Z,21.37
2023-05-19T15:21:29.763Z,21.52
2023-05-19T15:23:56.323Z,21.39
2023-05-19T15:26:22.939Z,21.39
2023-05-19T15:28:49.537Z,21.36
2023-05-19T15:31:16.255Z,21.30
2023-05-19T15:33:42.772Z,21.74
2023-05-19T15:36:11.122Z,21.79
2023-05-19T15:38:37.619Z,21.74
2023-05-19T15:41:08.440Z,21.35
2023-05-19T15:43:41.418Z,21.26
2023-05-19T15:46:08.035Z,21.38
2023-05-19T15:48:34.730Z,21.50
2023-05-19T15:51:01.651Z,21.83
2023-05-19T15:53:28.227Z,21.51
2023-05-19T15:55:54.769Z,21.29
2023-05-19T15:58:21.304Z,21.37
2023-05-19T16:00:47.891Z,21.22
2023-05-19T16:03:14.662Z,21.16
2023-05-19T16:05:41.259Z,21.01
2023-05-19T16:08:08.796Z,20.87
2023-05-19T16:10:40.963Z,20.77
2023-05-19T16:13:10.643Z,20.68
2023-05-19T16:15:37.222Z,20.71
2023-05-19T16:18:04.525Z,20.40
2023-05-19T16:20:31.368Z,20.27
2023-05-19T16:22:58.397Z,20.32
2023-05-19T16:25:25.011Z,20.29
2023-05-19T16:27:52.311Z,20.34
2023-05-19T16:30:18.889Z,20.30
2023-05-19T16:32:45.789Z,20.29
2023-05-19T16:35:12.400Z,20.31
2023-05-19T16:37:38.991Z,20.42
2023-05-19T16:40:06.854Z,20.64
2023-05-19T16:42:33.425Z,20.61
2023-05-19T16:44:59.922Z,20.55
2023-05-19T16:47:30.934Z,20.38
2023-05-19T16:49:57.556Z,20.32
2023-05-19T16:52:24.095Z,20.36
2023-05-19T16:54:50.668Z,20.20
2023-05-19T16:57:17.220Z,20.25
2023-05-19T16:59:43.794Z,20.16
2023-05-19T17:02:10.495Z,20.20
2023-05-19T17:04:37.106Z,20.12
2023-05-19T17:07:03.981Z,20.15
2023-05-19T17:09:31.274Z,20.04
2023-05-19T17:11:57.880Z,20.26
2023-05-19T17:14:24.449Z,20.46
2023-05-19T17:16:52.416Z,20.10
2023-05-19T17:19:19.170Z,20.03
2023-05-19T17:21:46.265Z,19.86
2023-05-19T17:24:12.865Z,19.85
2023-05-19T17:26:39.538Z,19.90
2023-05-19T17:29:06.076Z,19.85
2023-05-19T17:31:32.695Z,19.68
2023-05-19T17:33:59.209Z,19.64
2023-05-19T17:36:26.319Z,19.64
2023-05-19T17:38:54.035Z,19.50
2023-05-19T17:41:21.023Z,19.47
2023-05-19T17:44:02.675Z,19.46
2023-05-19T17:46:34.535Z,19.58
2023-05-19T17:49:12.654Z,19.86
2023-05-19T17:51:39.752Z,20.19
2023-05-19T17:54:09.264Z,20.29
2023-05-19T17:56:41.828Z,20.07
2023-05-19T17:59:08.930Z,19.92
2023-05-19T18:01:36.054Z,19.99
2023-05-19T18:04:03.666Z,19.83
2023-05-19T18:06:31.643Z,19.72
2023-05-19T18:09:01.145Z,19.65
2023-05-19T18:11:28.060Z,19.74
2023-05-19T18:13:54.811Z,19.72
2023-05-19T18:16:21.505Z,19.53
2023-05-19T18:18:50.457Z,19.37
2023-05-19T18:21:18.277Z,19.30
2023-05-19T18:23:46.250Z,19.18
2023-05-19T18:26:24.418Z,18.84
2023-05-19T18:29:02.316Z,18.73
2023-05-19T18:31:28.929Z,18.69
2023-05-19T18:34:03.464Z,18.61
2023-05-19T18:36:30.600Z,18.48
2023-05-19T18:39:00.289Z,18.41
2023-05-19T18:41:26.854Z,18.34
2023-05-19T18:43:54.072Z,18.22
2023-05-19T18:46:26.014Z,18.25
2023-05-19T18:48:52.847Z,18.16
2023-05-19T18:51:21.232Z,18.03
2023-05-19T18:53:49.937Z,17.86
2023-05-19T18:56:27.188Z,17.63
2023-05-19T18:58:57.519Z,17.48
2023-05-19T19:01:24.149Z,17.45
2023-05-19T19:03:51.209Z,17.42
2023-05-19T19:06:17.767Z,17.36
2023-05-19T19:08:44.635Z,17.31
2023-05-19T19:11:11.232Z,17.21
2023-05-19T19:13:38.235Z,17.06
2023-05-19T19:16:06.112Z,16.92
2023-05-19T19:18:34.449Z,16.81
2023-05-19T19:21:02.489Z,16.64
2023-05-19T19:23:32.487Z,16.49
2023-05-19T19:25:59.080Z,16.41
2023-05-19T19:28:25.832Z,16.25
2023-05-19T19:30:52.590Z,16.13
2023-05-19T19:33:19.311Z,16.01
2023-05-19T19:35:52.166Z,15.94
2023-05-19T19:38:18.746Z,15.87
2023-05-19T19:40:45.530Z,15.80
2023-05-19T19:43:12.098Z,15.81
2023-05-19T19:45:48.796Z,15.66
2023-05-19T19:48:17.975Z,15.53
2023-05-19T19:50:44.575Z,15.50
2023-05-19T19:53:11.369Z,15.48
2023-05-19T19:55:37.980Z,15.38
2023-05-19T19:58:04.533Z,15.29
2023-05-19T20:00:31.332Z,15.18
2023-05-19T20:03:05.053Z,14.95
2023-05-19T20:05:32.524Z,14.87
2023-05-19T20:07:59.162Z,14.81
2023-05-19T20:10:28.308Z,14.72
2023-05-19T20:13:01.728Z,14.61
2023-05-19T20:15:28.271Z,14.48
2023-05-19T20:17:54.886Z,14.42
2023-05-19T20:20:21.623Z,14.33
2023-05-19T20:22:48.103Z,14.27
2023-05-19T20:25:14.736Z,14.18
2023-05-19T20:27:41.280Z,14.20
2023-05-19T20:30:11.107Z,14.12
2023-05-19T20:32:54.015Z,13.86
2023-05-19T20:35:26.850Z,13.76
2023-05-19T20:37:53.478Z,13.78
2023-05-19T20:40:20.087Z,13.77
2023-05-19T20:42:46.597Z,13.62
2023-05-19T20:45:13.156Z,13.52
2023-05-19T20:47:45.352Z,13.49
2023-05-19T20:50:12.049Z,13.53
2023-05-19T20:52:38.601Z,13.40
2023-05-19T20:55:05.505Z,13.39
2023-05-19T20:57:32.054Z,13.39
2023-05-19T20:59:59.469Z,13.31
2023-05-19T21:02:26.002Z,13.18
2023-05-19T21:04:52.578Z,13.14
2023-05-19T21:07:19.484Z,13.13
2023-05-19T21:09:51.330Z,13.03
2023-05-19T21:12:19.038Z,13.04
2023-05-19T21:14:47.076Z,13.02
2023-05-19T21:17:13.637Z,13.02
2023-05-19T21:19:40.259Z,12.95
2023-05-19T21:22:13.313Z,12.88
2023-05-19T21:24:39.877Z,12.74
2023-05-19T21:27:06.447Z,12.73
2023-05-19T21:29:33.036Z,12.62
2023-05-19T21:32:02.371Z,12.52
2023-05-19T21:34:28.951Z,12.56
2023-05-19T21:37:00.002Z,12.55
2023-05-19T21:39:26.531Z,12.49
2023-05-19T21:41:53.138Z,12.50
2023-05-19T21:44:19.912Z,12.39
2023-05-19T21:46:46.658Z,12.29
2023-05-19T21:49:13.235Z,12.16
2023-05-19T21:51:39.777Z,12.10
2023-05-19T21:54:11.613Z,11.89
2023-05-19T21:56:46.746Z,11.95
2023-05-19T21:59:13.524Z,12.00
2023-05-19T22:01:40.312Z,11.72
2023-05-19T22:04:07.097Z,11.74
2023-05-19T22:06:34.137Z,11.64
2023-05-19T22:09:02.394Z,11.57
2023-05-19T22:11:28.919Z,11.44
2023-05-19T22:13:55.534Z,11.37
2023-05-19T22:16:22.202Z,11.39
2023-05-19T22:18:51.737Z,11.35
2023-05-19T22:21:18.367Z,11.45
2023-05-19T22:23:47.837Z,11.42
2023-05-19T22:26:14.386Z,11.41
2023-05-19T22:28:40.984Z,11.43
2023-05-19T22:31:15.786Z,11.47
2023-05-19T22:33:42.366Z,11.35
2023-05-19T22:36:10.883Z,11.42
2023-05-19T22:38:37.467Z,11.48
2023-05-19T22:41:04.070Z,11.36
2023-05-19T22:43:30.726Z,11.32
2023-05-19T22:45:57.311Z,11.35
2023-05-19T22:48:24.167Z,11.30
2023-05-19T22:50:50.884Z,11.21
2023-05-19T22:53:17.431Z,11.13
2023-05-19T22:55:43.971Z,11.20
2023-05-19T22:58:10.537Z,11.26
2023-05-19T23:00:37.076Z,11.19
2023-05-19T23:03:03.854Z,11.16
2023-05-19T23:05:30.439Z,11.01
2023-05-19T23:07:56.970Z,11.07
2023-05-19T23:10:23.548Z,11.14
2023-05-19T23:12:51.521Z,11.08
2023-05-19T23:15:18.259Z,11.00
2023-05-19T23:17:44.832Z,11.05
2023-05-19T23:20:12.711Z,11.07
2023-05-19T23:22:39.326Z,11.05
2023-05-19T23:25:07.734Z,11.10
2023-05-19T23:27:35.656Z,11.15
2023-05-19T23:30:03.502Z,11.14
2023-05-19T23:32:40.799Z,11.17
2023-05-19T23:35:16.559Z,11.09
2023-05-19T23:37:43.165Z,11.10
2023-05-19T23:40:10.350Z,11.07
2023-05-19T23:42:37.164Z,10.97
2023-05-19T23:45:05.405Z,10.87
2023-05-19T23:47:36.702Z,10.89
2023-05-19T23:50:03.593Z,10.90
2023-05-19T23:52:31.645Z,10.79
2023-05-19T23:54:58.252Z,10.78
2023-05-19T23:57:24.817Z,10.82
2023-05-19T23:59:51.364Z,10.79
